Terminal Aerodrome Forecast
Issued by NWS Goodland, KS

Home | Current Version | Previous Version | Text Only | Print | Product List | Glossary On
Versions: 1 2 3 4 5 6 7 8 9 10 11 12 13 14 15 16 17 18 19
000
FTUS43 KGLD 022329
TAFGLD
TAF
KGLD 022329Z 0300/0324 17020G30KT 3SM BR OVC006
      TEMPO 0301/0305 1/2SM FG
     FM030500 19021G29KT 5SM BR BKN015 OVC200 WS020/22055KT
      TEMPO 0305/0308 1SM BR OVC006
     FM031000 27019G26KT P6SM BKN035
     FM031300 31018G25KT P6SM BKN030
     FM031600 35020G28KT P6SM BKN015
     FM031900 01015G22KT P6SM SCT030 BKN100=

USA.gov is the U.S. government's official web portal to all federal, state and local government web resources and services.